createdAt,value
2022-12-11T00:02:08.245Z,52.18
2022-12-11T00:04:35.466Z,52.11
2022-12-11T00:07:02.539Z,51.96
2022-12-11T00:09:29.537Z,52.22
2022-12-11T00:11:56.476Z,52.05
2022-12-11T00:14:23.049Z,52.09
2022-12-11T00:16:49.725Z,52.15
2022-12-11T00:19:17.266Z,52.14
2022-12-11T00:21:44.314Z,52.17
2022-12-11T00:24:11.375Z,52.10
2022-12-11T00:26:39.429Z,51.96
2022-12-11T00:29:08.254Z,51.97
2022-12-11T00:31:35.640Z,51.85
2022-12-11T00:34:02.770Z,51.88
2022-12-11T00:36:29.796Z,51.75
2022-12-11T00:38:56.480Z,52.02
2022-12-11T00:41:23.761Z,51.78
2022-12-11T00:43:50.583Z,51.76
2022-12-11T00:46:17.818Z,51.92
2022-12-11T00:48:44.368Z,51.91
2022-12-11T00:51:11.142Z,51.80
2022-12-11T00:53:39.151Z,51.56
2022-12-11T00:56:20.065Z,51.86
2022-12-11T00:58:48.604Z,51.87
2022-12-11T01:01:21.328Z,51.76
2022-12-11T01:03:48.414Z,51.39
2022-12-11T01:06:18.873Z,51.59
2022-12-11T01:08:47.104Z,51.61
2022-12-11T01:11:17.162Z,51.74
2022-12-11T01:13:44.578Z,51.76
2022-12-11T01:16:14.611Z,51.80
2022-12-11T01:18:41.501Z,51.86
2022-12-11T01:21:13.599Z,51.43
2022-12-11T01:23:40.567Z,51.75
2022-12-11T01:26:11.014Z,51.89
2022-12-11T01:28:38.769Z,51.80
2022-12-11T01:31:10.620Z,51.82
2022-12-11T01:33:37.791Z,51.63
2022-12-11T01:36:14.834Z,51.64
2022-12-11T01:38:41.648Z,51.62
2022-12-11T01:41:09.151Z,51.67
2022-12-11T01:43:55.924Z,51.98
2022-12-11T01:46:22.495Z,51.87
2022-12-11T01:48:49.733Z,51.63
2022-12-11T01:51:16.782Z,51.75
2022-12-11T01:53:48.957Z,51.50
2022-12-11T01:56:15.686Z,51.58
2022-12-11T01:58:47.840Z,51.66
2022-12-11T02:01:23.587Z,51.68
2022-12-11T02:03:51.342Z,51.86
2022-12-11T02:06:37.352Z,51.86
2022-12-11T02:09:07.733Z,51.40
2022-12-11T02:12:10.290Z,51.51
2022-12-11T02:14:56.631Z,51.66
2022-12-11T02:17:26.548Z,51.64
2022-12-11T02:20:08.299Z,51.80
2022-12-11T02:23:00.070Z,51.38
2022-12-11T02:25:36.940Z,51.41
2022-12-11T02:28:48.749Z,51.74
2022-12-11T02:31:32.592Z,51.57
2022-12-11T02:34:13.345Z,51.50
2022-12-11T02:36:44.793Z,51.55
2022-12-11T02:39:15.488Z,51.71
2022-12-11T02:41:47.317Z,51.71
2022-12-11T02:44:17.300Z,51.69
2022-12-11T02:46:44.802Z,51.32
2022-12-11T02:49:13.667Z,51.85
2022-12-11T02:51:42.578Z,51.75
2022-12-11T02:54:15.005Z,51.52
2022-12-11T02:56:51.251Z,51.78
2022-12-11T02:59:27.465Z,51.66
2022-12-11T03:01:54.532Z,51.73
2022-12-11T03:04:24.867Z,51.54
2022-12-11T03:06:55.884Z,51.38
2022-12-11T03:09:22.899Z,51.65
2022-12-11T03:11:49.490Z,51.51
2022-12-11T03:14:16.057Z,51.65
2022-12-11T03:16:59.209Z,51.30
2022-12-11T03:19:36.709Z,51.35
2022-12-11T03:22:11.416Z,51.50
2022-12-11T03:24:37.902Z,51.69
2022-12-11T03:27:18.880Z,51.53
2022-12-11T03:29:57.243Z,51.55
2022-12-11T03:32:28.878Z,51.91
2022-12-11T03:35:12.136Z,51.85
2022-12-11T03:37:41.152Z,51.70
2022-12-11T03:40:14.022Z,51.62
2022-12-11T03:42:43.982Z,51.55
2022-12-11T03:45:13.693Z,51.72
2022-12-11T03:47:42.640Z,51.85
2022-12-11T03:50:12.917Z,51.65
2022-12-11T03:52:45.949Z,51.97
2022-12-11T03:55:15.848Z,51.74
2022-12-11T03:57:43.165Z,51.76
2022-12-11T04:00:13.837Z,51.84
2022-12-11T04:02:41.292Z,51.69
2022-12-11T04:05:09.817Z,51.64
2022-12-11T04:07:37.202Z,51.58
2022-12-11T04:10:05.721Z,51.89
2022-12-11T04:12:32.777Z,51.81
2022-12-11T04:15:02.384Z,51.71
2022-12-11T04:17:52.531Z,51.55
2022-12-11T04:20:38.676Z,51.87
2022-12-11T04:23:25.425Z,51.64
2022-12-11T04:25:52.170Z,51.78
2022-12-11T04:28:19.141Z,51.98
2022-12-11T04:30:50.670Z,51.70
2022-12-11T04:33:17.291Z,51.63
2022-12-11T04:35:43.846Z,51.70
2022-12-11T04:38:10.877Z,51.67
2022-12-11T04:40:37.869Z,51.78
2022-12-11T04:43:04.433Z,51.52
2022-12-11T04:45:31.417Z,51.83
2022-12-11T04:47:57.943Z,51.78
2022-12-11T04:50:24.931Z,51.48
2022-12-11T04:52:55.225Z,51.61
2022-12-11T04:55:21.779Z,51.68
2022-12-11T04:57:48.311Z,51.68
2022-12-11T05:00:15.814Z,51.84
2022-12-11T05:02:43.061Z,51.86
2022-12-11T05:05:11.371Z,51.65
2022-12-11T05:07:38.955Z,51.69
2022-12-11T05:10:07.006Z,51.78
2022-12-11T05:12:34.039Z,51.57
2022-12-11T05:15:00.605Z,51.84
2022-12-11T05:17:27.637Z,51.81
2022-12-11T05:19:54.281Z,51.74
2022-12-11T05:22:20.790Z,51.95
2022-12-11T05:24:47.764Z,51.36
2022-12-11T05:27:14.368Z,51.40
2022-12-11T05:29:42.073Z,51.69
2022-12-11T05:32:09.140Z,51.66
2022-12-11T05:34:35.640Z,51.71
2022-12-11T05:37:02.674Z,51.51
2022-12-11T05:39:29.941Z,51.61
2022-12-11T05:41:57.156Z,51.57
2022-12-11T05:44:23.911Z,51.44
2022-12-11T05:46:50.978Z,51.29
2022-12-11T05:49:19.906Z,51.55
2022-12-11T05:51:47.217Z,51.74
2022-12-11T05:54:14.069Z,51.57
2022-12-11T05:56:41.053Z,51.43
2022-12-11T05:59:08.475Z,51.63
2022-12-11T06:01:38.298Z,51.50
2022-12-11T06:04:06.799Z,51.66
2022-12-11T06:06:34.729Z,51.28
2022-12-11T06:09:01.562Z,51.24
2022-12-11T06:11:32.154Z,51.57
2022-12-11T06:14:01.081Z,51.65
2022-12-11T06:16:27.638Z,51.40
2022-12-11T06:18:58.012Z,51.41
2022-12-11T06:21:33.569Z,51.17
2022-12-11T06:24:03.232Z,51.28
2022-12-11T06:26:30.381Z,51.29
2022-12-11T06:28:57.403Z,51.29
2022-12-11T06:31:24.524Z,51.46
2022-12-11T06:33:51.144Z,51.34
2022-12-11T06:36:20.971Z,51.14
2022-12-11T06:38:48.471Z,51.32
2022-12-11T06:41:15.087Z,51.36
2022-12-11T06:44:02.776Z,51.27
2022-12-11T06:46:30.059Z,51.30
2022-12-11T06:48:57.525Z,51.22
2022-12-11T06:51:24.134Z,51.27
2022-12-11T06:53:57.023Z,51.16
2022-12-11T06:56:24.557Z,51.43
2022-12-11T06:58:52.053Z,51.18
2022-12-11T07:01:24.888Z,51.34
2022-12-11T07:03:58.862Z,51.59
2022-12-11T07:06:27.109Z,51.41
2022-12-11T07:08:54.233Z,51.21
2022-12-11T07:11:21.884Z,51.49
2022-12-11T07:13:48.949Z,51.49
2022-12-11T07:16:17.432Z,51.19
2022-12-11T07:18:48.469Z,51.19
2022-12-11T07:21:16.373Z,51.27
2022-12-11T07:23:43.508Z,51.48
2022-12-11T07:26:16.944Z,51.38
2022-12-11T07:28:43.651Z,51.17
2022-12-11T07:31:16.454Z,51.36
2022-12-11T07:33:44.493Z,51.57
2022-12-11T07:36:13.552Z,51.41
2022-12-11T07:38:40.806Z,51.19
2022-12-11T07:41:11.328Z,51.46
2022-12-11T07:43:38.127Z,51.03
2022-12-11T07:46:17.441Z,50.74
2022-12-11T07:48:46.255Z,50.99
2022-12-11T07:51:26.572Z,50.96
2022-12-11T07:53:55.120Z,50.92
2022-12-11T07:56:22.279Z,51.02
2022-12-11T07:58:48.949Z,51.17
2022-12-11T08:01:18.644Z,51.04
2022-12-11T08:03:45.753Z,50.84
2022-12-11T08:06:12.722Z,50.88
2022-12-11T08:08:41.504Z,51.20
2022-12-11T08:11:10.849Z,51.41
2022-12-11T08:13:38.095Z,51.42
2022-12-11T08:16:10.044Z,51.60
2022-12-11T08:18:39.077Z,51.63
2022-12-11T08:21:08.104Z,51.42
2022-12-11T08:23:35.105Z,51.46
2022-12-11T08:26:04.121Z,51.75
2022-12-11T08:28:31.102Z,51.76
2022-12-11T08:31:02.091Z,51.52
2022-12-11T08:33:28.908Z,51.66
2022-12-11T08:35:55.402Z,51.63
2022-12-11T08:38:25.458Z,51.86
2022-12-11T08:40:52.270Z,51.72
2022-12-11T08:43:19.363Z,51.83
2022-12-11T08:45:46.609Z,51.52
2022-12-11T08:48:13.281Z,51.74
2022-12-11T08:50:39.826Z,51.65
2022-12-11T08:53:06.377Z,51.71
2022-12-11T08:55:33.750Z,51.69
2022-12-11T08:58:00.349Z,51.84
2022-12-11T09:00:26.898Z,51.84
2022-12-11T09:02:53.453Z,51.65
2022-12-11T09:05:20.532Z,51.55
2022-12-11T09:07:47.138Z,51.55
2022-12-11T09:10:13.841Z,51.59
2022-12-11T09:12:40.633Z,51.55
2022-12-11T09:15:07.919Z,51.45
2022-12-11T09:17:35.154Z,51.30
2022-12-11T09:20:01.977Z,51.25
2022-12-11T09:22:28.655Z,51.23
2022-12-11T09:24:55.193Z,51.00
2022-12-11T09:27:22.200Z,51.32
2022-12-11T09:29:49.313Z,51.15
2022-12-11T09:32:15.855Z,51.12
2022-12-11T09:34:42.413Z,50.60
2022-12-11T09:37:09.328Z,50.96
2022-12-11T09:39:35.976Z,50.82
2022-12-11T09:42:31.823Z,50.69
2022-12-11T09:45:03.056Z,50.84
2022-12-11T09:47:40.794Z,50.75
2022-12-11T09:50:10.481Z,50.86
2022-12-11T09:52:55.541Z,50.67
2022-12-11T09:55:24.369Z,50.94
2022-12-11T09:57:50.827Z,50.77
2022-12-11T10:00:37.189Z,50.67
2022-12-11T10:03:18.906Z,50.77
2022-12-11T10:06:22.692Z,50.75
2022-12-11T10:09:17.073Z,51.12
2022-12-11T10:12:16.115Z,51.33
2022-12-11T10:15:18.631Z,51.20
2022-12-11T10:17:45.846Z,51.51
2022-12-11T10:20:24.536Z,51.49
2022-12-11T10:22:52.661Z,51.49
2022-12-11T10:25:31.572Z,51.69
2022-12-11T10:27:58.292Z,51.81
2022-12-11T10:30:32.936Z,51.89
2022-12-11T10:33:43.041Z,51.71
2022-12-11T10:36:11.213Z,51.88
2022-12-11T10:38:44.128Z,51.75
2022-12-11T10:41:14.248Z,52.00
2022-12-11T10:43:46.361Z,52.03
2022-12-11T10:46:25.045Z,52.22
2022-12-11T10:48:55.361Z,52.14
2022-12-11T10:51:43.814Z,52.06
2022-12-11T10:54:39.833Z,52.24
2022-12-11T10:57:10.619Z,52.23
2022-12-11T10:59:43.581Z,52.24
2022-12-11T11:02:31.891Z,52.25
2022-12-11T11:05:01.365Z,52.21
2022-12-11T11:07:34.329Z,52.51
2022-12-11T11:10:12.461Z,52.65
2022-12-11T11:12:46.073Z,52.37
2022-12-11T11:15:18.546Z,52.38
2022-12-11T11:17:54.959Z,52.47
2022-12-11T11:20:28.128Z,52.34
2022-12-11T11:23:03.971Z,52.65
2022-12-11T11:25:32.686Z,52.64
2022-12-11T11:28:05.345Z,52.59
2022-12-11T11:30:33.518Z,52.38
2022-12-11T11:33:06.285Z,52.30
2022-12-11T11:35:33.096Z,52.30
2022-12-11T11:38:17.569Z,52.55
2022-12-11T11:41:15.247Z,52.43
2022-12-11T11:43:47.731Z,52.47
2022-12-11T11:46:44.735Z,52.70
2022-12-11T11:49:42.118Z,52.58
2022-12-11T11:52:26.084Z,52.53
2022-12-11T11:55:18.739Z,52.59
2022-12-11T11:57:58.685Z,52.74
2022-12-11T12:00:33.311Z,52.52
2022-12-11T12:03:13.644Z,52.56
2022-12-11T12:05:47.100Z,52.71
2022-12-11T12:08:22.945Z,52.90
2022-12-11T12:10:59.251Z,52.86
2022-12-11T12:13:55.347Z,52.77
2022-12-11T12:16:52.820Z,52.84
2022-12-11T12:19:35.618Z,52.93
2022-12-11T12:22:32.438Z,52.91
2022-12-11T12:25:01.684Z,52.90
2022-12-11T12:27:53.667Z,52.86
2022-12-11T12:30:23.214Z,52.78
2022-12-11T12:33:25.673Z,52.84
2022-12-11T12:36:25.276Z,52.89
2022-12-11T12:39:02.173Z,52.92
2022-12-11T12:41:34.742Z,52.66
2022-12-11T12:44:04.749Z,52.66
2022-12-11T12:46:54.257Z,52.55
2022-12-11T12:49:42.110Z,52.67
2022-12-11T12:52:33.756Z,52.73
2022-12-11T12:55:18.896Z,52.71
2022-12-11T12:57:49.844Z,52.77
2022-12-11T13:00:41.358Z,52.57
2022-12-11T13:03:18.275Z,52.66
2022-12-11T13:05:57.064Z,52.42
2022-12-11T13:08:38.467Z,52.61
2022-12-11T13:11:07.912Z,52.38
2022-12-11T13:13:39.397Z,52.68
2022-12-11T13:16:24.885Z,52.53
2022-12-11T13:18:52.646Z,52.58
2022-12-11T13:21:35.310Z,52.59
2022-12-11T13:24:20.013Z,52.58
2022-12-11T13:26:48.778Z,52.48
2022-12-11T13:29:30.521Z,52.54
2022-12-11T13:32:08.145Z,52.45
2022-12-11T13:34:39.058Z,52.36
2022-12-11T13:37:07.456Z,52.35
2022-12-11T13:39:40.544Z,52.32
2022-12-11T13:42:20.825Z,52.31
2022-12-11T13:44:49.468Z,52.43
2022-12-11T13:47:19.211Z,52.43
2022-12-11T13:49:50.495Z,52.41
2022-12-11T13:52:20.443Z,52.39
2022-12-11T13:54:52.919Z,52.28
2022-12-11T13:57:25.964Z,52.45
2022-12-11T13:59:59.437Z,52.35
2022-12-11T14:02:29.559Z,52.45
2022-12-11T14:04:59.962Z,52.50
2022-12-11T14:07:40.858Z,52.27
2022-12-11T14:10:28.756Z,52.44
2022-12-11T14:13:02.955Z,52.38
2022-12-11T14:15:32.912Z,52.47
2022-12-11T14:18:00.530Z,52.35
2022-12-11T14:20:33.218Z,52.34
2022-12-11T14:23:07.679Z,52.53
2022-12-11T14:25:34.771Z,52.29
2022-12-11T14:28:01.766Z,52.37
2022-12-11T14:30:31.845Z,52.54
2022-12-11T14:33:03.160Z,52.30
2022-12-11T14:35:38.950Z,52.07
2022-12-11T14:38:24.565Z,52.54
2022-12-11T14:40:56.950Z,52.41
2022-12-11T14:43:29.347Z,52.52
2022-12-11T14:46:00.671Z,52.34
2022-12-11T14:48:33.018Z,52.36
2022-12-11T14:51:04.111Z,52.17
2022-12-11T14:53:38.928Z,52.25
2022-12-11T14:56:07.619Z,52.51
2022-12-11T14:58:43.021Z,52.31
2022-12-11T15:01:41.885Z,52.57
2022-12-11T15:04:14.188Z,52.47
2022-12-11T15:06:47.027Z,52.65
2022-12-11T15:09:18.867Z,52.54
2022-12-11T15:11:47.174Z,52.29
2022-12-11T15:14:16.619Z,52.31
2022-12-11T15:16:43.793Z,52.47
2022-12-11T15:19:21.977Z,52.27
2022-12-11T15:21:49.594Z,52.29
2022-12-11T15:24:42.832Z,52.21
2022-12-11T15:27:28.455Z,52.30
2022-12-11T15:29:55.682Z,52.43
2022-12-11T15:32:23.515Z,52.52
2022-12-11T15:34:53.234Z,52.42
2022-12-11T15:37:24.874Z,52.36
2022-12-11T15:39:52.761Z,52.45
2022-12-11T15:42:31.833Z,52.24
2022-12-11T15:44:59.497Z,52.41
2022-12-11T15:47:29.235Z,52.35
2022-12-11T15:50:11.971Z,52.29
2022-12-11T15:52:39.116Z,52.29
2022-12-11T15:55:06.814Z,52.20
2022-12-11T15:57:34.463Z,52.37
2022-12-11T16:00:01.822Z,52.45
2022-12-11T16:02:28.378Z,52.30
2022-12-11T16:04:54.993Z,52.17
2022-12-11T16:07:24.204Z,52.45
2022-12-11T16:09:50.758Z,52.30
2022-12-11T16:12:17.777Z,52.23
2022-12-11T16:14:46.156Z,52.27
2022-12-11T16:17:14.957Z,52.28
2022-12-11T16:19:43.067Z,52.11
2022-12-11T16:22:10.738Z,52.17
2022-12-11T16:24:37.493Z,52.40
2022-12-11T16:27:05.300Z,52.28
2022-12-11T16:29:39.925Z,52.42
2022-12-11T16:32:08.405Z,52.32
2022-12-11T16:34:37.275Z,52.34
2022-12-11T16:37:06.090Z,52.25
2022-12-11T16:39:32.790Z,52.28
2022-12-11T16:41:59.294Z,52.35
2022-12-11T16:44:27.331Z,52.14
2022-12-11T16:46:54.502Z,52.22
2022-12-11T16:49:22.557Z,52.22
2022-12-11T16:51:51.777Z,52.38
2022-12-11T16:54:18.607Z,52.37
2022-12-11T16:56:45.441Z,52.31
2022-12-11T16:59:12.935Z,52.49
2022-12-11T17:01:40.019Z,52.44
2022-12-11T17:04:06.996Z,52.58
2022-12-11T17:06:34.021Z,52.44
2022-12-11T17:09:01.277Z,52.72
2022-12-11T17:11:28.020Z,52.60
2022-12-11T17:13:56.017Z,52.66
2022-12-11T17:16:24.879Z,52.62
2022-12-11T17:18:51.891Z,52.94
2022-12-11T17:21:19.725Z,52.67
2022-12-11T17:23:46.306Z,52.72
2022-12-11T17:26:12.875Z,52.68
2022-12-11T17:28:39.655Z,52.72
2022-12-11T17:31:09.153Z,52.94
2022-12-11T17:33:35.961Z,52.80
2022-12-11T17:36:05.273Z,52.87
2022-12-11T17:38:32.167Z,52.67
2022-12-11T17:40:59.066Z,52.64
2022-12-11T17:43:26.222Z,52.99
2022-12-11T17:45:52.967Z,52.81
2022-12-11T17:48:22.442Z,52.84
2022-12-11T17:50:50.857Z,52.67
2022-12-11T17:53:19.569Z,52.94
2022-12-11T17:55:47.010Z,52.87
2022-12-11T17:58:16.689Z,53.13
2022-12-11T18:00:44.866Z,52.92
2022-12-11T18:03:13.271Z,52.81
2022-12-11T18:05:44.655Z,52.74
2022-12-11T18:08:16.050Z,52.84
2022-12-11T18:10:42.784Z,52.80
2022-12-11T18:13:09.803Z,52.85
2022-12-11T18:15:36.877Z,52.70
2022-12-11T18:18:04.553Z,52.67
2022-12-11T18:20:32.686Z,52.85
2022-12-11T18:23:00.651Z,53.08
2022-12-11T18:25:27.433Z,52.97
2022-12-11T18:27:57.327Z,53.17
2022-12-11T18:30:25.186Z,53.04
2022-12-11T18:32:52.559Z,52.83
2022-12-11T18:35:19.525Z,52.96
2022-12-11T18:37:46.588Z,53.00
2022-12-11T18:40:13.536Z,53.01
2022-12-11T18:42:40.604Z,53.04
2022-12-11T18:45:07.712Z,53.03
2022-12-11T18:47:34.771Z,52.93
2022-12-11T18:50:07.321Z,52.71
2022-12-11T18:52:34.989Z,52.91
2022-12-11T18:55:02.179Z,52.94
2022-12-11T18:57:29.232Z,53.02
2022-12-11T18:59:56.260Z,52.90
2022-12-11T19:02:23.553Z,53.10
2022-12-11T19:04:50.128Z,53.37
2022-12-11T19:07:16.596Z,53.34
2022-12-11T19:09:47.801Z,53.17
2022-12-11T19:12:14.817Z,53.43
2022-12-11T19:14:41.496Z,53.19
2022-12-11T19:17:08.627Z,53.04
2022-12-11T19:19:36.000Z,53.25
2022-12-11T19:22:03.101Z,53.33
2022-12-11T19:24:30.345Z,53.23
2022-12-11T19:26:57.223Z,53.16
2022-12-11T19:29:28.690Z,53.02
2022-12-11T19:31:56.713Z,53.22
2022-12-11T19:34:23.795Z,53.18
2022-12-11T19:36:50.619Z,53.26
2022-12-11T19:39:17.377Z,53.12
2022-12-11T19:41:46.489Z,53.19
2022-12-11T19:44:13.077Z,53.12
2022-12-11T19:46:39.652Z,53.02
2022-12-11T19:49:06.409Z,53.19
2022-12-11T19:51:38.881Z,53.01
2022-12-11T19:54:07.123Z,53.27
2022-12-11T19:56:34.620Z,53.41
2022-12-11T19:59:06.875Z,52.90
2022-12-11T20:01:36.063Z,53.07
2022-12-11T20:04:10.148Z,53.07
2022-12-11T20:06:38.786Z,53.05
2022-12-11T20:09:10.681Z,53.19
2022-12-11T20:11:39.496Z,53.05
2022-12-11T20:14:06.657Z,53.05
2022-12-11T20:17:08.664Z,53.17
2022-12-11T20:19:21.022Z,53.16
2022-12-11T20:21:48.039Z,53.05
2022-12-11T20:24:14.596Z,53.11
2022-12-11T20:26:41.166Z,52.76
2022-12-11T20:29:08.408Z,52.90
2022-12-11T20:31:36.397Z,52.91
2022-12-11T20:34:03.532Z,53.10
2022-12-11T20:36:30.123Z,52.90
2022-12-11T20:38:56.761Z,53.03
2022-12-11T20:41:24.577Z,53.00
2022-12-11T20:43:53.980Z,53.00
2022-12-11T20:46:22.401Z,53.01
2022-12-11T20:48:50.714Z,52.99
2022-12-11T20:51:25.726Z,52.85
2022-12-11T20:53:59.125Z,53.17
2022-12-11T20:56:28.771Z,53.16
2022-12-11T20:58:56.319Z,52.83
2022-12-11T21:01:25.898Z,52.73
2022-12-11T21:03:53.555Z,52.84
2022-12-11T21:06:20.074Z,52.69
2022-12-11T21:08:46.685Z,52.88
2022-12-11T21:11:13.931Z,52.98
2022-12-11T21:13:41.044Z,52.79
2022-12-11T21:16:08.741Z,52.98
2022-12-11T21:18:35.358Z,52.75
2022-12-11T21:21:02.791Z,52.91
2022-12-11T21:23:29.382Z,52.75
2022-12-11T21:25:56.402Z,52.92
2022-12-11T21:28:23.632Z,53.09
2022-12-11T21:30:50.706Z,53.04
2022-12-11T21:33:17.582Z,52.85
2022-12-11T21:35:44.462Z,52.83
2022-12-11T21:38:11.127Z,53.04
2022-12-11T21:40:37.819Z,52.92
2022-12-11T21:43:04.823Z,52.71
2022-12-11T21:48:22.872Z,52.85
2022-12-11T21:50:51.503Z,52.59
2022-12-11T21:53:18.217Z,52.55
2022-12-11T21:55:45.301Z,52.37
2022-12-11T21:58:11.950Z,52.32
2022-12-11T22:00:39.506Z,52.49
2022-12-11T22:03:06.396Z,52.35
2022-12-11T22:05:33.288Z,52.24
2022-12-11T22:08:00.395Z,52.35
2022-12-11T22:10:28.720Z,52.32
2022-12-11T22:12:56.248Z,52.26
2022-12-11T22:15:22.843Z,53.29
2022-12-11T22:17:49.937Z,53.18
2022-12-11T22:20:16.530Z,53.05
2022-12-11T22:22:43.575Z,52.81
2022-12-11T22:25:10.392Z,52.71
2022-12-11T22:27:37.266Z,52.58
2022-12-11T22:30:04.609Z,52.62
2022-12-11T22:32:31.113Z,52.68
2022-12-11T22:34:57.909Z,52.33
2022-12-11T22:37:25.164Z,52.54
2022-12-11T22:39:51.905Z,52.06
2022-12-11T22:42:19.370Z,52.46
2022-12-11T22:44:46.376Z,52.15
2022-12-11T22:47:13.422Z,52.06
2022-12-11T22:49:40.401Z,52.23
2022-12-11T22:52:07.484Z,51.94
2022-12-11T22:54:34.561Z,52.04
2022-12-11T22:57:01.476Z,52.15
2022-12-11T22:59:28.208Z,51.88
2022-12-11T23:01:55.262Z,52.04
2022-12-11T23:04:21.795Z,51.99
2022-12-11T23:06:48.312Z,51.90
2022-12-11T23:09:14.960Z,51.88
2022-12-11T23:11:42.087Z,51.80
2022-12-11T23:14:14.482Z,52.02
2022-12-11T23:16:41.846Z,51.91
2022-12-11T23:19:09.291Z,52.04
2022-12-11T23:21:36.042Z,52.01
2022-12-11T23:24:02.720Z,51.79
2022-12-11T23:26:29.809Z,52.01
2022-12-11T23:28:58.524Z,51.45
2022-12-11T23:31:26.334Z,51.92
2022-12-11T23:33:53.221Z,52.01
2022-12-11T23:36:20.500Z,51.96
2022-12-11T23:38:54.069Z,52.08
2022-12-11T23:41:22.025Z,52.03
2022-12-11T23:43:48.834Z,51.89
2022-12-11T23:46:19.108Z,51.62
2022-12-11T23:48:46.762Z,51.80
2022-12-11T23:51:15.765Z,51.85
2022-12-11T23:53:43.364Z,51.65
2022-12-11T23:56:14.287Z,51.97
2022-12-11T23:58:41.484Z,51.84
